Terminal Aerodrome Forecast
Issued by NWS Burlington, VT

Home | Current Version | Previous Version | Text Only | Print | Product List | Glossary On
Versions: 1 2 3 4 5 6 7 8 9 10 11 12 13 14 15 16 17 18 19
000
FTUS41 KBTV 281739
TAFBTV
TAF
KBTV 281739Z 2818/2918 22009G15KT P6SM VCSH SCT040 BKN070
     FM282300 VRB03KT P6SM SCT120
     FM291200 18007KT P6SM VCSH BKN100
     FM291500 18006KT 5SM -RA BR OVC050=

USA.gov is the U.S. government's official web portal to all federal, state and local government web resources and services.